sensor_id;sensor_type;location;lat;lon;timestamp;pressure;altitude;pressure_sealevel;temperature;humidity
21730;BME280;11027;51.030;13.812;2022-07-23T00:01:54;100247.63;;;25.04;51.71
21730;BME280;11027;51.030;13.812;2022-07-23T00:04:19;100254.88;;;25.00;52.22
21730;BME280;11027;51.030;13.812;2022-07-23T00:06:45;100253.72;;;24.90;52.14
21730;BME280;11027;51.030;13.812;2022-07-23T00:09:10;100250.91;;;24.85;52.47
21730;BME280;11027;51.030;13.812;2022-07-23T00:11:35;100253.72;;;24.85;52.44
21730;BME280;11027;51.030;13.812;2022-07-23T00:14:00;100234.22;;;24.85;52.37
21730;BME280;11027;51.030;13.812;2022-07-23T00:16:26;100236.44;;;24.83;52.60
21730;BME280;11027;51.030;13.812;2022-07-23T00:18:51;100243.41;;;24.81;52.82
21730;BME280;11027;51.030;13.812;2022-07-23T00:21:16;100243.63;;;24.74;52.85
21730;BME280;11027;51.030;13.812;2022-07-23T00:23:41;100239.16;;;24.68;52.92
21730;BME280;11027;51.030;13.812;2022-07-23T00:26:07;100234.66;;;24.62;53.23
21730;BME280;11027;51.030;13.812;2022-07-23T00:28:33;100229.66;;;24.59;53.50
21730;BME280;11027;51.030;13.812;2022-07-23T00:30:58;100231.25;;;24.49;53.62
21730;BME280;11027;51.030;13.812;2022-07-23T00:33:23;100223.41;;;24.41;53.79
21730;BME280;11027;51.030;13.812;2022-07-23T00:35:49;100227.84;;;24.37;53.89
21730;BME280;11027;51.030;13.812;2022-07-23T00:38:14;100226.19;;;24.36;54.17
21730;BME280;11027;51.030;13.812;2022-07-23T00:40:39;100232.28;;;24.33;54.40
21730;BME280;11027;51.030;13.812;2022-07-23T00:43:05;100235.03;;;24.28;54.36
21730;BME280;11027;51.030;13.812;2022-07-23T00:45:30;100236.41;;;24.20;54.72
21730;BME280;11027;51.030;13.812;2022-07-23T00:47:56;100233.28;;;24.11;54.81
21730;BME280;11027;51.030;13.812;2022-07-23T00:50:21;100234.34;;;24.05;55.08
21730;BME280;11027;51.030;13.812;2022-07-23T00:52:46;100238.81;;;24.06;55.02
21730;BME280;11027;51.030;13.812;2022-07-23T00:55:12;100238.25;;;24.04;54.94
21730;BME280;11027;51.030;13.812;2022-07-23T00:57:39;100239.28;;;23.93;55.24
21730;BME280;11027;51.030;13.812;2022-07-23T01:00:07;100243.69;;;23.89;55.32
21730;BME280;11027;51.030;13.812;2022-07-23T01:02:33;100239.75;;;23.80;55.55
21730;BME280;11027;51.030;13.812;2022-07-23T01:04:58;100235.28;;;23.79;55.68
21730;BME280;11027;51.030;13.812;2022-07-23T01:07:24;100234.19;;;23.80;55.51
21730;BME280;11027;51.030;13.812;2022-07-23T01:09:51;100226.69;;;23.80;55.42
21730;BME280;11027;51.030;13.812;2022-07-23T01:12:17;100225.50;;;23.76;55.42
21730;BME280;11027;51.030;13.812;2022-07-23T01:14:42;100227.19;;;23.77;55.42
21730;BME280;11027;51.030;13.812;2022-07-23T01:17:07;100218.06;;;23.82;55.50
21730;BME280;11027;51.030;13.812;2022-07-23T01:19:33;100221.91;;;23.75;55.66
21730;BME280;11027;51.030;13.812;2022-07-23T01:22:01;100213.56;;;23.75;55.78
21730;BME280;11027;51.030;13.812;2022-07-23T01:24:27;100212.13;;;23.73;55.64
21730;BME280;11027;51.030;13.812;2022-07-23T01:26:52;100196.28;;;23.73;55.99
21730;BME280;11027;51.030;13.812;2022-07-23T01:29:18;100196.09;;;23.80;55.85
21730;BME280;11027;51.030;13.812;2022-07-23T01:31:44;100193.31;;;23.80;55.74
21730;BME280;11027;51.030;13.812;2022-07-23T01:34:10;100192.47;;;23.80;55.91
21730;BME280;11027;51.030;13.812;2022-07-23T01:36:36;100186.84;;;23.74;56.01
21730;BME280;11027;51.030;13.812;2022-07-23T01:39:03;100184.88;;;23.75;56.11
21730;BME280;11027;51.030;13.812;2022-07-23T01:41:29;100176.78;;;23.68;56.32
21730;BME280;11027;51.030;13.812;2022-07-23T01:43:54;100180.06;;;23.60;56.43
21730;BME280;11027;51.030;13.812;2022-07-23T01:46:19;100171.66;;;23.55;56.60
21730;BME280;11027;51.030;13.812;2022-07-23T01:48:45;100171.66;;;23.50;56.71
21730;BME280;11027;51.030;13.812;2022-07-23T01:51:10;100165.50;;;23.48;56.54
21730;BME280;11027;51.030;13.812;2022-07-23T01:53:35;100164.88;;;23.41;56.75
21730;BME280;11027;51.030;13.812;2022-07-23T01:56:01;100162.09;;;23.35;57.11
21730;BME280;11027;51.030;13.812;2022-07-23T01:58:27;100155.97;;;23.39;57.14
21730;BME280;11027;51.030;13.812;2022-07-23T02:00:53;100164.06;;;23.40;56.95
21730;BME280;11027;51.030;13.812;2022-07-23T02:03:19;100165.44;;;23.38;57.04
21730;BME280;11027;51.030;13.812;2022-07-23T02:05:45;100169.53;;;23.30;57.04
21730;BME280;11027;51.030;13.812;2022-07-23T02:08:10;100170.81;;;23.17;57.38
21730;BME280;11027;51.030;13.812;2022-07-23T02:10:36;100165.22;;;23.12;57.48
21730;BME280;11027;51.030;13.812;2022-07-23T02:13:01;100158.56;;;23.13;57.55
21730;BME280;11027;51.030;13.812;2022-07-23T02:15:26;100153.03;;;23.18;57.55
21730;BME280;11027;51.030;13.812;2022-07-23T02:17:53;100157.50;;;23.19;57.65
21730;BME280;11027;51.030;13.812;2022-07-23T02:20:18;100159.13;;;23.15;57.54
21730;BME280;11027;51.030;13.812;2022-07-23T02:22:44;100157.41;;;23.09;57.62
21730;BME280;11027;51.030;13.812;2022-07-23T02:25:09;100152.38;;;23.06;57.77
21730;BME280;11027;51.030;13.812;2022-07-23T02:27:35;100146.50;;;23.02;57.92
21730;BME280;11027;51.030;13.812;2022-07-23T02:30:01;100152.25;;;22.95;58.22
21730;BME280;11027;51.030;13.812;2022-07-23T02:32:26;100153.31;;;22.89;58.57
21730;BME280;11027;51.030;13.812;2022-07-23T02:34:52;100158.53;;;22.86;58.40
21730;BME280;11027;51.030;13.812;2022-07-23T02:37:17;100155.50;;;22.87;58.31
21730;BME280;11027;51.030;13.812;2022-07-23T02:39:43;100156.34;;;22.88;58.43
21730;BME280;11027;51.030;13.812;2022-07-23T02:42:08;100156.59;;;22.86;58.52
21730;BME280;11027;51.030;13.812;2022-07-23T02:44:34;100149.94;;;22.87;58.40
21730;BME280;11027;51.030;13.812;2022-07-23T02:46:59;100141.06;;;22.90;58.41
21730;BME280;11027;51.030;13.812;2022-07-23T02:49:24;100146.06;;;22.88;58.35
21730;BME280;11027;51.030;13.812;2022-07-23T02:51:49;100132.47;;;22.87;58.57
21730;BME280;11027;51.030;13.812;2022-07-23T02:54:15;100131.09;;;22.89;58.39
21730;BME280;11027;51.030;13.812;2022-07-23T02:56:40;100130.53;;;22.92;58.32
21730;BME280;11027;51.030;13.812;2022-07-23T02:59:05;100137.25;;;22.96;58.41
21730;BME280;11027;51.030;13.812;2022-07-23T03:01:32;100131.19;;;23.00;58.47
21730;BME280;11027;51.030;13.812;2022-07-23T03:03:57;100132.88;;;23.01;58.56
21730;BME280;11027;51.030;13.812;2022-07-23T03:06:22;100141.81;;;23.03;58.12
21730;BME280;11027;51.030;13.812;2022-07-23T03:08:47;100145.06;;;23.00;58.58
21730;BME280;11027;51.030;13.812;2022-07-23T03:11:13;100138.44;;;23.01;58.65
21730;BME280;11027;51.030;13.812;2022-07-23T03:13:39;100125.63;;;23.00;58.67
21730;BME280;11027;51.030;13.812;2022-07-23T03:16:05;100129.50;;;22.99;58.83
21730;BME280;11027;51.030;13.812;2022-07-23T03:18:30;100132.81;;;22.95;58.94
21730;BME280;11027;51.030;13.812;2022-07-23T03:20:56;100124.97;;;22.92;59.08
21730;BME280;11027;51.030;13.812;2022-07-23T03:23:21;100130.25;;;22.89;59.01
21730;BME280;11027;51.030;13.812;2022-07-23T03:25:46;100124.69;;;22.89;59.00
21730;BME280;11027;51.030;13.812;2022-07-23T03:28:14;100119.97;;;22.89;58.92
21730;BME280;11027;51.030;13.812;2022-07-23T03:30:40;100118.81;;;22.85;59.08
21730;BME280;11027;51.030;13.812;2022-07-23T03:33:05;100110.19;;;22.82;59.50
21730;BME280;11027;51.030;13.812;2022-07-23T03:35:31;100116.53;;;22.77;59.47
21730;BME280;11027;51.030;13.812;2022-07-23T03:37:56;100117.56;;;22.71;59.67
21730;BME280;11027;51.030;13.812;2022-07-23T03:40:21;100115.59;;;22.66;59.60
21730;BME280;11027;51.030;13.812;2022-07-23T03:42:47;100098.06;;;22.66;59.85
21730;BME280;11027;51.030;13.812;2022-07-23T03:45:12;100095.03;;;22.67;59.79
21730;BME280;11027;51.030;13.812;2022-07-23T03:47:37;100099.22;;;22.70;59.59
21730;BME280;11027;51.030;13.812;2022-07-23T03:50:04;100099.78;;;22.67;59.76
21730;BME280;11027;51.030;13.812;2022-07-23T03:52:29;100097.50;;;22.64;60.14
21730;BME280;11027;51.030;13.812;2022-07-23T03:54:54;100100.28;;;22.64;60.40
21730;BME280;11027;51.030;13.812;2022-07-23T03:57:20;100103.53;;;22.55;60.14
21730;BME280;11027;51.030;13.812;2022-07-23T03:59:45;100104.56;;;22.49;60.54
21730;BME280;11027;51.030;13.812;2022-07-23T04:02:10;100107.81;;;22.41;60.86
21730;BME280;11027;51.030;13.812;2022-07-23T04:04:35;100111.63;;;22.35;61.01
21730;BME280;11027;51.030;13.812;2022-07-23T04:07:01;100107.72;;;22.31;61.07
21730;BME280;11027;51.030;13.812;2022-07-23T04:09:26;100104.94;;;22.31;61.12
21730;BME280;11027;51.030;13.812;2022-07-23T04:11:51;100111.56;;;22.30;61.10
21730;BME280;11027;51.030;13.812;2022-07-23T04:14:16;100100.47;;;22.30;61.36
21730;BME280;11027;51.030;13.812;2022-07-23T04:16:42;100105.00;;;22.36;61.19
21730;BME280;11027;51.030;13.812;2022-07-23T04:19:07;100078.41;;;22.40;61.05
21730;BME280;11027;51.030;13.812;2022-07-23T04:21:33;100086.78;;;22.45;61.16
21730;BME280;11027;51.030;13.812;2022-07-23T04:23:58;100080.72;;;22.48;60.75
21730;BME280;11027;51.030;13.812;2022-07-23T04:26:23;100087.91;;;22.49;60.86
21730;BME280;11027;51.030;13.812;2022-07-23T04:28:48;100092.66;;;22.49;60.70
21730;BME280;11027;51.030;13.812;2022-07-23T04:31:14;100090.13;;;22.47;61.06
21730;BME280;11027;51.030;13.812;2022-07-23T04:33:39;100100.41;;;22.47;60.96
21730;BME280;11027;51.030;13.812;2022-07-23T04:36:04;100105.13;;;22.46;61.25
21730;BME280;11027;51.030;13.812;2022-07-23T04:38:30;100106.78;;;22.47;61.75
21730;BME280;11027;51.030;13.812;2022-07-23T04:40:55;100107.31;;;22.44;61.90
21730;BME280;11027;51.030;13.812;2022-07-23T04:43:20;100110.91;;;22.45;61.92
21730;BME280;11027;51.030;13.812;2022-07-23T04:45:46;100114.53;;;22.45;62.12
21730;BME280;11027;51.030;13.812;2022-07-23T04:48:11;100114.19;;;22.42;61.99
21730;BME280;11027;51.030;13.812;2022-07-23T04:50:36;100107.81;;;22.41;62.07
21730;BME280;11027;51.030;13.812;2022-07-23T04:53:01;100112.28;;;22.42;62.15
21730;BME280;11027;51.030;13.812;2022-07-23T04:55:27;100113.94;;;22.43;62.21
21730;BME280;11027;51.030;13.812;2022-07-23T04:57:53;100113.94;;;22.43;62.63
21730;BME280;11027;51.030;13.812;2022-07-23T05:00:18;100116.72;;;22.43;62.39
21730;BME280;11027;51.030;13.812;2022-07-23T05:02:43;100107.31;;;22.44;62.59
21730;BME280;11027;51.030;13.812;2022-07-23T05:05:08;100112.31;;;22.47;62.42
21730;BME280;11027;51.030;13.812;2022-07-23T05:07:34;100115.34;;;22.46;62.61
21730;BME280;11027;51.030;13.812;2022-07-23T05:09:59;100107.88;;;22.46;62.57
21730;BME280;11027;51.030;13.812;2022-07-23T05:12:24;100110.66;;;22.46;62.70
21730;BME280;11027;51.030;13.812;2022-07-23T05:14:49;100103.44;;;22.45;62.52
21730;BME280;11027;51.030;13.812;2022-07-23T05:17:15;100103.69;;;22.44;62.70
21730;BME280;11027;51.030;13.812;2022-07-23T05:19:40;100123.69;;;22.46;62.66
21730;BME280;11027;51.030;13.812;2022-07-23T05:22:05;100127.03;;;22.48;62.74
21730;BME280;11027;51.030;13.812;2022-07-23T05:24:30;100127.63;;;22.50;62.89
21730;BME280;11027;51.030;13.812;2022-07-23T05:26:56;100120.66;;;22.47;62.78
21730;BME280;11027;51.030;13.812;2022-07-23T05:29:21;100109.50;;;22.42;62.76
21730;BME280;11027;51.030;13.812;2022-07-23T05:31:46;100120.03;;;22.40;62.98
21730;BME280;11027;51.030;13.812;2022-07-23T05:34:11;100128.63;;;22.39;63.21
21730;BME280;11027;51.030;13.812;2022-07-23T05:36:37;100144.16;;;22.40;63.01
21730;BME280;11027;51.030;13.812;2022-07-23T05:39:03;100147.22;;;22.38;63.07
21730;BME280;11027;51.030;13.812;2022-07-23T05:41:28;100149.84;;;22.28;63.15
21730;BME280;11027;51.030;13.812;2022-07-23T05:43:54;100154.34;;;22.12;64.06
21730;BME280;11027;51.030;13.812;2022-07-23T05:46:19;100158.53;;;22.14;64.14
21730;BME280;11027;51.030;13.812;2022-07-23T05:48:44;100163.03;;;22.21;64.18
21730;BME280;11027;51.030;13.812;2022-07-23T05:51:19;100188.00;;;22.21;63.85
21730;BME280;11027;51.030;13.812;2022-07-23T05:53:44;100195.53;;;22.03;64.27
21730;BME280;11027;51.030;13.812;2022-07-23T05:56:10;100205.84;;;21.86;64.88
21730;BME280;11027;51.030;13.812;2022-07-23T05:58:35;100196.38;;;21.48;66.04
21730;BME280;11027;51.030;13.812;2022-07-23T06:01:00;100201.63;;;21.32;66.67
21730;BME280;11027;51.030;13.812;2022-07-23T06:03:25;100209.69;;;21.17;67.24
21730;BME280;11027;51.030;13.812;2022-07-23T06:05:51;100224.13;;;21.19;67.50
21730;BME280;11027;51.030;13.812;2022-07-23T06:08:16;100239.75;;;21.25;67.48
21730;BME280;11027;51.030;13.812;2022-07-23T06:10:41;100241.81;;;21.18;67.77
21730;BME280;11027;51.030;13.812;2022-07-23T06:13:07;100251.41;;;20.98;68.20
21730;BME280;11027;51.030;13.812;2022-07-23T06:15:32;100252.41;;;20.92;68.48
21730;BME280;11027;51.030;13.812;2022-07-23T06:17:57;100245.84;;;20.82;68.96
21730;BME280;11027;51.030;13.812;2022-07-23T06:20:23;100249.22;;;20.72;68.94
21730;BME280;11027;51.030;13.812;2022-07-23T06:22:48;100247.81;;;20.69;69.19
21730;BME280;11027;51.030;13.812;2022-07-23T06:25:13;100255.16;;;20.64;69.50
21730;BME280;11027;51.030;13.812;2022-07-23T06:27:38;100260.59;;;20.58;69.64
21730;BME280;11027;51.030;13.812;2022-07-23T06:30:04;100258.28;;;20.55;69.42
21730;BME280;11027;51.030;13.812;2022-07-23T06:32:30;100273.94;;;20.62;69.57
21730;BME280;11027;51.030;13.812;2022-07-23T06:34:55;100277.56;;;20.50;69.65
21730;BME280;11027;51.030;13.812;2022-07-23T06:37:21;100265.06;;;20.36;70.20
21730;BME280;11027;51.030;13.812;2022-07-23T06:39:47;100274.91;;;20.32;70.54
21730;BME280;11027;51.030;13.812;2022-07-23T06:42:12;100273.25;;;20.31;70.37
21730;BME280;11027;51.030;13.812;2022-07-23T06:44:38;100261.34;;;20.30;70.69
21730;BME280;11027;51.030;13.812;2022-07-23T06:47:04;100260.16;;;20.38;70.50
21730;BME280;11027;51.030;13.812;2022-07-23T06:49:29;100263.50;;;20.40;70.55
21730;BME280;11027;51.030;13.812;2022-07-23T06:51:54;100260.69;;;20.64;69.94
21730;BME280;11027;51.030;13.812;2022-07-23T06:54:19;100270.31;;;20.73;69.77
21730;BME280;11027;51.030;13.812;2022-07-23T06:56:45;100273.06;;;20.73;69.25
21730;BME280;11027;51.030;13.812;2022-07-23T06:59:10;100274.53;;;20.64;69.45
21730;BME280;11027;51.030;13.812;2022-07-23T07:01:35;100273.94;;;20.50;69.73
21730;BME280;11027;51.030;13.812;2022-07-23T07:04:01;100255.81;;;20.42;70.23
21730;BME280;11027;51.030;13.812;2022-07-23T07:06:26;100262.16;;;20.54;69.97
21730;BME280;11027;51.030;13.812;2022-07-23T07:08:51;100264.22;;;20.59;69.73
21730;BME280;11027;51.030;13.812;2022-07-23T07:11:17;100261.03;;;20.79;69.40
21730;BME280;11027;51.030;13.812;2022-07-23T07:13:42;100264.59;;;20.91;68.84
21730;BME280;11027;51.030;13.812;2022-07-23T07:16:07;100255.28;;;20.97;68.42
21730;BME280;11027;51.030;13.812;2022-07-23T07:18:32;100237.56;;;20.98;68.28
21730;BME280;11027;51.030;13.812;2022-07-23T07:20:58;100238.38;;;21.11;67.88
21730;BME280;11027;51.030;13.812;2022-07-23T07:23:23;100232.50;;;21.24;67.45
21730;BME280;11027;51.030;13.812;2022-07-23T07:25:49;100237.88;;;21.31;67.20
21730;BME280;11027;51.030;13.812;2022-07-23T07:28:14;100226.28;;;21.46;66.71
21730;BME280;11027;51.030;13.812;2022-07-23T07:30:39;100234.34;;;21.64;66.08
21730;BME280;11027;51.030;13.812;2022-07-23T07:33:05;100221.06;;;21.66;65.87
21730;BME280;11027;51.030;13.812;2022-07-23T07:35:30;100259.59;;;21.85;65.52
21730;BME280;11027;51.030;13.812;2022-07-23T07:37:57;100261.63;;;21.89;65.07
21730;BME280;11027;51.030;13.812;2022-07-23T07:40:23;100254.06;;;21.85;64.81
21730;BME280;11027;51.030;13.812;2022-07-23T07:42:52;100259.69;;;21.90;65.01
21730;BME280;11027;51.030;13.812;2022-07-23T07:45:23;100258.25;;;21.87;64.69
21730;BME280;11027;51.030;13.812;2022-07-23T07:47:49;100255.25;;;21.72;65.16
21730;BME280;11027;51.030;13.812;2022-07-23T07:50:14;100264.66;;;21.71;65.21
21730;BME280;11027;51.030;13.812;2022-07-23T07:52:39;100266.25;;;21.84;64.93
21730;BME280;11027;51.030;13.812;2022-07-23T07:55:06;100258.59;;;21.91;64.72
21730;BME280;11027;51.030;13.812;2022-07-23T07:57:32;100265.31;;;22.12;63.83
21730;BME280;11027;51.030;13.812;2022-07-23T07:59:57;100275.91;;;22.32;63.46
21730;BME280;11027;51.030;13.812;2022-07-23T08:02:23;100275.22;;;22.25;62.82
21730;BME280;11027;51.030;13.812;2022-07-23T08:04:48;100253.03;;;22.25;62.70
21730;BME280;11027;51.030;13.812;2022-07-23T08:07:14;100255.00;;;22.46;62.46
21730;BME280;11027;51.030;13.812;2022-07-23T08:09:39;100244.16;;;22.67;61.75
21730;BME280;11027;51.030;13.812;2022-07-23T08:12:05;100225.53;;;22.89;61.63
21730;BME280;11027;51.030;13.812;2022-07-23T08:14:30;100220.19;;;23.10;60.89
21730;BME280;11027;51.030;13.812;2022-07-23T08:16:55;100222.50;;;23.18;60.47
21730;BME280;11027;51.030;13.812;2022-07-23T08:19:21;100222.03;;;23.26;59.79
21730;BME280;11027;51.030;13.812;2022-07-23T08:21:46;100222.44;;;23.40;60.10
21730;BME280;11027;51.030;13.812;2022-07-23T08:24:11;100220.06;;;23.54;59.24
21730;BME280;11027;51.030;13.812;2022-07-23T08:26:36;100222.66;;;23.66;58.74
21730;BME280;11027;51.030;13.812;2022-07-23T08:29:02;100215.06;;;23.56;58.93
21730;BME280;11027;51.030;13.812;2022-07-23T08:31:27;100215.69;;;23.63;58.71
21730;BME280;11027;51.030;13.812;2022-07-23T08:33:52;100222.41;;;23.72;58.40
21730;BME280;11027;51.030;13.812;2022-07-23T08:36:17;100220.75;;;23.71;58.53
21730;BME280;11027;51.030;13.812;2022-07-23T08:38:43;100221.28;;;23.68;58.01
21730;BME280;11027;51.030;13.812;2022-07-23T08:41:09;100217.34;;;23.64;58.05
21730;BME280;11027;51.030;13.812;2022-07-23T08:43:34;100218.16;;;23.60;58.26
21730;BME280;11027;51.030;13.812;2022-07-23T08:46:02;100221.28;;;23.68;58.05
21730;BME280;11027;51.030;13.812;2022-07-23T08:48:29;100216.38;;;23.81;58.05
21730;BME280;11027;51.030;13.812;2022-07-23T08:50:57;100220.38;;;23.95;57.64
21730;BME280;11027;51.030;13.812;2022-07-23T08:53:23;100219.59;;;24.05;57.40
21730;BME280;11027;51.030;13.812;2022-07-23T08:55:53;100217.44;;;24.17;57.14
21730;BME280;11027;51.030;13.812;2022-07-23T08:58:19;100224.19;;;24.26;57.15
21730;BME280;11027;51.030;13.812;2022-07-23T09:00:47;100212.81;;;24.33;56.52
21730;BME280;11027;51.030;13.812;2022-07-23T09:03:27;100213.94;;;24.32;56.47
21730;BME280;11027;51.030;13.812;2022-07-23T09:05:54;100226.19;;;24.36;56.47
21730;BME280;11027;51.030;13.812;2022-07-23T09:08:24;100231.75;;;24.36;56.10
21730;BME280;11027;51.030;13.812;2022-07-23T09:11:08;100230.34;;;24.33;56.11
21730;BME280;11027;51.030;13.812;2022-07-23T09:13:39;100237.34;;;24.36;56.08
21730;BME280;11027;51.030;13.812;2022-07-23T09:16:15;100232.34;;;24.43;55.74
21730;BME280;11027;51.030;13.812;2022-07-23T09:18:51;100230.19;;;24.50;55.62
21730;BME280;11027;51.030;13.812;2022-07-23T09:21:23;100244.59;;;24.47;55.58
21730;BME280;11027;51.030;13.812;2022-07-23T09:23:55;100242.38;;;24.49;55.46
21730;BME280;11027;51.030;13.812;2022-07-23T09:26:25;100239.25;;;24.35;55.45
21730;BME280;11027;51.030;13.812;2022-07-23T09:28:53;100238.94;;;24.27;55.60
21730;BME280;11027;51.030;13.812;2022-07-23T09:31:19;100236.25;;;24.42;55.57
21730;BME280;11027;51.030;13.812;2022-07-23T09:33:44;100236.94;;;24.65;55.11
21730;BME280;11027;51.030;13.812;2022-07-23T09:36:10;100233.38;;;24.85;54.68
21730;BME280;11027;51.030;13.812;2022-07-23T09:38:48;100231.41;;;24.90;54.05
21730;BME280;11027;51.030;13.812;2022-07-23T09:41:13;100225.31;;;24.93;54.09
21730;BME280;11027;51.030;13.812;2022-07-23T09:43:39;100228.13;;;24.99;53.97
21730;BME280;11027;51.030;13.812;2022-07-23T09:46:17;100234.25;;;25.06;53.85
21730;BME280;11027;51.030;13.812;2022-07-23T09:48:43;100239.28;;;25.09;53.66
21730;BME280;11027;51.030;13.812;2022-07-23T09:51:08;100251.28;;;25.09;53.39
21730;BME280;11027;51.030;13.812;2022-07-23T09:53:33;100249.34;;;25.15;53.40
21730;BME280;11027;51.030;13.812;2022-07-23T09:56:00;100262.41;;;25.09;53.31
21730;BME280;11027;51.030;13.812;2022-07-23T09:58:26;100264.06;;;25.10;53.26
21730;BME280;11027;51.030;13.812;2022-07-23T10:00:55;100260.53;;;25.25;53.32
21730;BME280;11027;51.030;13.812;2022-07-23T10:03:23;100261.09;;;25.32;52.90
21730;BME280;11027;51.030;13.812;2022-07-23T10:05:50;100260.00;;;25.44;52.63
21730;BME280;11027;51.030;13.812;2022-07-23T10:08:18;100253.88;;;25.52;52.35
21730;BME280;11027;51.030;13.812;2022-07-23T10:10:46;100251.06;;;25.57;51.92
21730;BME280;11027;51.030;13.812;2022-07-23T10:13:12;100253.88;;;25.72;51.96
21730;BME280;11027;51.030;13.812;2022-07-23T10:16:11;100259.44;;;25.93;51.62
21730;BME280;11027;51.030;13.812;2022-07-23T10:18:37;100253.84;;;26.03;51.42
21730;BME280;11027;51.030;13.812;2022-07-23T10:21:05;100251.63;;;26.05;50.89
21730;BME280;11027;51.030;13.812;2022-07-23T10:24:04;100260.84;;;26.01;50.59
21730;BME280;11027;51.030;13.812;2022-07-23T10:26:47;100261.38;;;25.87;51.08
21730;BME280;11027;51.030;13.812;2022-07-23T10:32:09;100271.19;;;25.69;50.75
21730;BME280;11027;51.030;13.812;2022-07-23T10:35:02;100266.97;;;25.51;51.32
21730;BME280;11027;51.030;13.812;2022-07-23T10:37:32;100268.91;;;25.51;51.42
21730;BME280;11027;51.030;13.812;2022-07-23T10:40:17;100276.72;;;25.59;51.53
21730;BME280;11027;51.030;13.812;2022-07-23T10:42:44;100280.09;;;25.61;51.07
21730;BME280;11027;51.030;13.812;2022-07-23T10:45:32;100282.03;;;25.50;51.39
21730;BME280;11027;51.030;13.812;2022-07-23T10:48:20;100272.53;;;25.36;51.73
21730;BME280;11027;51.030;13.812;2022-07-23T10:56:16;100271.69;;;25.30;51.82
21730;BME280;11027;51.030;13.812;2022-07-23T10:58:46;100278.91;;;25.26;51.62
21730;BME280;11027;51.030;13.812;2022-07-23T11:01:39;100269.94;;;25.14;51.85
21730;BME280;11027;51.030;13.812;2022-07-23T11:04:06;100262.44;;;25.20;51.95
21730;BME280;11027;51.030;13.812;2022-07-23T11:15:06;100273.13;;;25.64;50.98
21730;BME280;11027;51.030;13.812;2022-07-23T11:17:34;100269.47;;;25.89;50.79
21730;BME280;11027;51.030;13.812;2022-07-23T11:22:38;100274.53;;;26.02;50.16
21730;BME280;11027;51.030;13.812;2022-07-23T11:25:04;100284.53;;;26.13;50.04
21730;BME280;11027;51.030;13.812;2022-07-23T11:27:44;100280.63;;;26.25;49.73
21730;BME280;11027;51.030;13.812;2022-07-23T11:30:56;100282.25;;;26.41;49.39
21730;BME280;11027;51.030;13.812;2022-07-23T11:35:45;100284.47;;;26.49;48.95
21730;BME280;11027;51.030;13.812;2022-07-23T11:38:17;100287.56;;;26.38;48.88
21730;BME280;11027;51.030;13.812;2022-07-23T11:40:54;100287.06;;;26.15;48.83
21730;BME280;11027;51.030;13.812;2022-07-23T11:43:20;100285.41;;;25.99;49.63
21730;BME280;11027;51.030;13.812;2022-07-23T11:45:49;100275.63;;;25.75;50.02
21730;BME280;11027;51.030;13.812;2022-07-23T11:48:24;100295.44;;;25.74;50.18
21730;BME280;11027;51.030;13.812;2022-07-23T11:50:51;100292.91;;;25.57;50.95
21730;BME280;11027;51.030;13.812;2022-07-23T11:53:29;100280.91;;;25.46;51.82
21730;BME280;11027;51.030;13.812;2022-07-23T11:56:10;100298.50;;;25.52;52.29
21730;BME280;11027;51.030;13.812;2022-07-23T11:58:37;100285.63;;;25.51;52.61
21730;BME280;11027;51.030;13.812;2022-07-23T12:01:03;100288.97;;;25.32;52.89
21730;BME280;11027;51.030;13.812;2022-07-23T12:03:28;100292.50;;;25.12;53.65
21730;BME280;11027;51.030;13.812;2022-07-23T12:05:58;100288.88;;;25.02;53.86
21730;BME280;11027;51.030;13.812;2022-07-23T12:08:24;100297.22;;;25.02;54.02
21730;BME280;11027;51.030;13.812;2022-07-23T12:10:49;100289.44;;;24.99;53.94
21730;BME280;11027;51.030;13.812;2022-07-23T12:13:17;100296.63;;;24.89;54.26
21730;BME280;11027;51.030;13.812;2022-07-23T12:15:48;100293.81;;;24.84;54.52
21730;BME280;11027;51.030;13.812;2022-07-23T12:18:18;100293.19;;;24.67;54.67
21730;BME280;11027;51.030;13.812;2022-07-23T12:20:49;100296.19;;;24.55;55.25
21730;BME280;11027;51.030;13.812;2022-07-23T12:23:18;100317.09;;;24.58;55.44
21730;BME280;11027;51.030;13.812;2022-07-23T12:25:45;100320.13;;;24.56;55.79
21730;BME280;11027;51.030;13.812;2022-07-23T12:28:17;100316.50;;;24.50;56.30
21730;BME280;11027;51.030;13.812;2022-07-23T12:33:15;100325.09;;;24.49;56.67
21730;BME280;11027;51.030;13.812;2022-07-23T12:35:43;100322.00;;;24.45;56.62
21730;BME280;11027;51.030;13.812;2022-07-23T12:38:11;100332.69;;;24.59;56.48
21730;BME280;11027;51.030;13.812;2022-07-23T12:45:54;100328.47;;;25.09;55.15
21730;BME280;11027;51.030;13.812;2022-07-23T12:48:30;100330.69;;;25.12;54.74
21730;BME280;11027;51.030;13.812;2022-07-23T12:50:56;100331.41;;;24.77;55.37
21730;BME280;11027;51.030;13.812;2022-07-23T12:55:53;100319.59;;;24.59;56.17
21730;BME280;11027;51.030;13.812;2022-07-23T12:58:22;100311.63;;;24.78;55.57
21730;BME280;11027;51.030;13.812;2022-07-23T13:03:25;100317.84;;;25.06;55.13
21730;BME280;11027;51.030;13.812;2022-07-23T13:05:51;100315.66;;;25.13;54.70
21730;BME280;11027;51.030;13.812;2022-07-23T13:08:17;100316.84;;;25.32;54.41
21730;BME280;11027;51.030;13.812;2022-07-23T13:10:42;100308.56;;;25.63;53.69
21730;BME280;11027;51.030;13.812;2022-07-23T13:13:09;100323.63;;;26.19;53.01
21730;BME280;11027;51.030;13.812;2022-07-23T13:15:35;100320.50;;;26.46;51.58